sensor_id;sensor_type;location;lat;lon;timestamp;temperature;humidity
12773;DHT22;6450;48.576;13.460;2022-07-04T00:02:14;22.20;95.90
12773;DHT22;6450;48.576;13.460;2022-07-04T00:04:41;22.20;96.40
12773;DHT22;6450;48.576;13.460;2022-07-04T00:07:09;22.00;96.40
12773;DHT22;6450;48.576;13.460;2022-07-04T00:09:36;22.10;97.20
12773;DHT22;6450;48.576;13.460;2022-07-04T00:12:04;22.00;97.60
12773;DHT22;6450;48.576;13.460;2022-07-04T00:14:31;22.00;98.40
12773;DHT22;6450;48.576;13.460;2022-07-04T00:16:58;22.00;98.90
12773;DHT22;6450;48.576;13.460;2022-07-04T00:19:25;21.90;99.90
12773;DHT22;6450;48.576;13.460;2022-07-04T00:21:52;21.80;99.90
12773;DHT22;6450;48.576;13.460;2022-07-04T00:24:20;21.80;99.90
12773;DHT22;6450;48.576;13.460;2022-07-04T00:26:47;21.80;99.90
12773;DHT22;6450;48.576;13.460;2022-07-04T00:29:14;21.70;99.90
12773;DHT22;6450;48.576;13.460;2022-07-04T00:31:41;21.70;99.90
12773;DHT22;6450;48.576;13.460;2022-07-04T00:34:08;21.60;99.90
12773;DHT22;6450;48.576;13.460;2022-07-04T00:36:35;21.60;99.90
12773;DHT22;6450;48.576;13.460;2022-07-04T00:39:02;21.60;99.90
12773;DHT22;6450;48.576;13.460;2022-07-04T00:41:31;21.60;99.90
12773;DHT22;6450;48.576;13.460;2022-07-04T00:44:02;21.60;99.90
12773;DHT22;6450;48.576;13.460;2022-07-04T00:46:30;21.60;99.90
12773;DHT22;6450;48.576;13.460;2022-07-04T00:48:57;21.50;99.90
12773;DHT22;6450;48.576;13.460;2022-07-04T00:51:25;21.60;99.90
12773;DHT22;6450;48.576;13.460;2022-07-04T00:53:53;21.60;99.90
12773;DHT22;6450;48.576;13.460;2022-07-04T00:56:21;21.60;99.90
12773;DHT22;6450;48.576;13.460;2022-07-04T00:58:49;21.50;99.90
12773;DHT22;6450;48.576;13.460;2022-07-04T01:01:17;21.50;99.90
12773;DHT22;6450;48.576;13.460;2022-07-04T01:03:43;21.50;99.90
12773;DHT22;6450;48.576;13.460;2022-07-04T01:06:11;21.50;99.90
12773;DHT22;6450;48.576;13.460;2022-07-04T01:08:40;21.60;99.90
12773;DHT22;6450;48.576;13.460;2022-07-04T01:11:07;21.60;99.90
12773;DHT22;6450;48.576;13.460;2022-07-04T01:13:35;21.60;99.90
12773;DHT22;6450;48.576;13.460;2022-07-04T01:16:03;21.50;99.90
12773;DHT22;6450;48.576;13.460;2022-07-04T01:18:31;21.40;99.90
12773;DHT22;6450;48.576;13.460;2022-07-04T01:20:59;21.40;99.90
12773;DHT22;6450;48.576;13.460;2022-07-04T01:23:26;21.30;99.90
12773;DHT22;6450;48.576;13.460;2022-07-04T01:25:53;21.20;99.90
12773;DHT22;6450;48.576;13.460;2022-07-04T01:28:21;21.10;99.90
12773;DHT22;6450;48.576;13.460;2022-07-04T01:30:48;21.00;99.90
12773;DHT22;6450;48.576;13.460;2022-07-04T01:33:15;21.00;99.90
12773;DHT22;6450;48.576;13.460;2022-07-04T01:35:43;21.00;99.90
12773;DHT22;6450;48.576;13.460;2022-07-04T01:38:12;20.90;99.90
12773;DHT22;6450;48.576;13.460;2022-07-04T01:40:39;20.90;99.90
12773;DHT22;6450;48.576;13.460;2022-07-04T01:43:06;20.90;99.90
12773;DHT22;6450;48.576;13.460;2022-07-04T01:45:33;20.90;99.90
12773;DHT22;6450;48.576;13.460;2022-07-04T01:48:03;20.90;99.90
12773;DHT22;6450;48.576;13.460;2022-07-04T01:50:30;20.90;99.90
12773;DHT22;6450;48.576;13.460;2022-07-04T01:52:57;20.90;99.90
12773;DHT22;6450;48.576;13.460;2022-07-04T01:55:26;20.90;99.90
12773;DHT22;6450;48.576;13.460;2022-07-04T01:57:54;20.80;99.90
12773;DHT22;6450;48.576;13.460;2022-07-04T02:00:21;20.80;99.90
12773;DHT22;6450;48.576;13.460;2022-07-04T02:03:05;20.70;99.90
12773;DHT22;6450;48.576;13.460;2022-07-04T02:05:33;20.70;99.90
12773;DHT22;6450;48.576;13.460;2022-07-04T02:08:00;20.70;99.90
12773;DHT22;6450;48.576;13.460;2022-07-04T02:10:28;20.70;99.90
12773;DHT22;6450;48.576;13.460;2022-07-04T02:12:55;20.70;99.90
12773;DHT22;6450;48.576;13.460;2022-07-04T02:15:27;20.60;99.90
12773;DHT22;6450;48.576;13.460;2022-07-04T02:17:55;20.50;99.90
12773;DHT22;6450;48.576;13.460;2022-07-04T02:20:22;20.50;99.90
12773;DHT22;6450;48.576;13.460;2022-07-04T02:22:49;20.50;99.90
12773;DHT22;6450;48.576;13.460;2022-07-04T02:25:16;20.40;99.90
12773;DHT22;6450;48.576;13.460;2022-07-04T02:27:45;20.40;99.90
12773;DHT22;6450;48.576;13.460;2022-07-04T02:30:13;20.30;99.90
12773;DHT22;6450;48.576;13.460;2022-07-04T02:32:40;20.30;99.90
12773;DHT22;6450;48.576;13.460;2022-07-04T02:35:08;20.20;99.90
12773;DHT22;6450;48.576;13.460;2022-07-04T02:37:35;20.20;99.90
12773;DHT22;6450;48.576;13.460;2022-07-04T02:40:03;20.10;99.90
12773;DHT22;6450;48.576;13.460;2022-07-04T02:42:31;20.20;99.90
12773;DHT22;6450;48.576;13.460;2022-07-04T02:45:00;20.10;99.90
12773;DHT22;6450;48.576;13.460;2022-07-04T02:47:27;20.00;99.90
12773;DHT22;6450;48.576;13.460;2022-07-04T02:49:54;20.00;99.90
12773;DHT22;6450;48.576;13.460;2022-07-04T02:52:21;20.00;99.90
12773;DHT22;6450;48.576;13.460;2022-07-04T02:54:48;20.00;99.90
12773;DHT22;6450;48.576;13.460;2022-07-04T02:57:18;20.00;99.90
12773;DHT22;6450;48.576;13.460;2022-07-04T02:59:45;19.90;99.90
12773;DHT22;6450;48.576;13.460;2022-07-04T03:02:13;19.90;99.90
12773;DHT22;6450;48.576;13.460;2022-07-04T03:04:40;19.90;99.90
12773;DHT22;6450;48.576;13.460;2022-07-04T03:07:08;19.80;99.90
12773;DHT22;6450;48.576;13.460;2022-07-04T03:09:35;19.70;99.90
12773;DHT22;6450;48.576;13.460;2022-07-04T03:12:02;19.70;99.90
12773;DHT22;6450;48.576;13.460;2022-07-04T03:14:29;19.70;99.90
12773;DHT22;6450;48.576;13.460;2022-07-04T03:16:56;19.70;99.90
12773;DHT22;6450;48.576;13.460;2022-07-04T03:19:24;19.70;99.90
12773;DHT22;6450;48.576;13.460;2022-07-04T03:21:51;19.70;99.90
12773;DHT22;6450;48.576;13.460;2022-07-04T03:24:18;19.70;99.90
12773;DHT22;6450;48.576;13.460;2022-07-04T03:26:45;19.70;99.90
12773;DHT22;6450;48.576;13.460;2022-07-04T03:29:12;19.70;99.90
12773;DHT22;6450;48.576;13.460;2022-07-04T03:31:39;19.70;99.90
12773;DHT22;6450;48.576;13.460;2022-07-04T03:34:06;19.70;99.90
12773;DHT22;6450;48.576;13.460;2022-07-04T03:36:34;19.70;99.90
12773;DHT22;6450;48.576;13.460;2022-07-04T03:39:02;19.80;99.90
12773;DHT22;6450;48.576;13.460;2022-07-04T03:41:29;19.90;99.90
12773;DHT22;6450;48.576;13.460;2022-07-04T03:43:56;20.10;99.90
12773;DHT22;6450;48.576;13.460;2022-07-04T03:46:23;20.20;99.90
12773;DHT22;6450;48.576;13.460;2022-07-04T03:48:50;20.30;99.90
12773;DHT22;6450;48.576;13.460;2022-07-04T03:51:17;20.40;99.90
12773;DHT22;6450;48.576;13.460;2022-07-04T03:53:45;20.40;99.90
12773;DHT22;6450;48.576;13.460;2022-07-04T03:56:12;20.30;99.90
12773;DHT22;6450;48.576;13.460;2022-07-04T03:58:39;20.30;99.90
12773;DHT22;6450;48.576;13.460;2022-07-04T04:01:08;20.40;99.90
12773;DHT22;6450;48.576;13.460;2022-07-04T04:03:35;20.30;99.90
12773;DHT22;6450;48.576;13.460;2022-07-04T04:06:19;20.20;99.90
12773;DHT22;6450;48.576;13.460;2022-07-04T04:08:48;19.20;99.90
12773;DHT22;6450;48.576;13.460;2022-07-04T04:11:15;20.30;99.90
12773;DHT22;6450;48.576;13.460;2022-07-04T04:13:42;20.30;99.90
12773;DHT22;6450;48.576;13.460;2022-07-04T04:16:09;20.40;99.90
12773;DHT22;6450;48.576;13.460;2022-07-04T04:18:36;20.30;99.90
12773;DHT22;6450;48.576;13.460;2022-07-04T04:21:04;20.30;99.90
12773;DHT22;6450;48.576;13.460;2022-07-04T04:23:31;20.30;99.90
12773;DHT22;6450;48.576;13.460;2022-07-04T04:25:59;20.10;99.90
12773;DHT22;6450;48.576;13.460;2022-07-04T04:28:26;20.00;99.90
12773;DHT22;6450;48.576;13.460;2022-07-04T04:30:53;19.90;99.90
12773;DHT22;6450;48.576;13.460;2022-07-04T04:33:20;19.90;99.90
12773;DHT22;6450;48.576;13.460;2022-07-04T04:35:47;19.90;99.90
12773;DHT22;6450;48.576;13.460;2022-07-04T04:38:14;19.90;99.90
12773;DHT22;6450;48.576;13.460;2022-07-04T04:40:41;19.90;99.90
12773;DHT22;6450;48.576;13.460;2022-07-04T04:43:10;19.90;99.90
12773;DHT22;6450;48.576;13.460;2022-07-04T04:45:37;20.00;99.90
12773;DHT22;6450;48.576;13.460;2022-07-04T04:48:05;20.10;99.90
12773;DHT22;6450;48.576;13.460;2022-07-04T04:50:33;20.10;99.90
12773;DHT22;6450;48.576;13.460;2022-07-04T04:53:00;20.20;99.90
12773;DHT22;6450;48.576;13.460;2022-07-04T04:55:27;20.30;99.90
12773;DHT22;6450;48.576;13.460;2022-07-04T04:57:54;20.30;99.90
12773;DHT22;6450;48.576;13.460;2022-07-04T05:00:23;20.30;99.90
12773;DHT22;6450;48.576;13.460;2022-07-04T05:02:50;20.30;99.90
12773;DHT22;6450;48.576;13.460;2022-07-04T05:05:17;20.10;99.90
12773;DHT22;6450;48.576;13.460;2022-07-04T05:07:44;19.90;99.90
12773;DHT22;6450;48.576;13.460;2022-07-04T05:10:11;19.80;99.90
12773;DHT22;6450;48.576;13.460;2022-07-04T05:12:38;19.70;99.90
12773;DHT22;6450;48.576;13.460;2022-07-04T05:15:05;19.60;99.90
12773;DHT22;6450;48.576;13.460;2022-07-04T05:17:35;19.40;99.90
12773;DHT22;6450;48.576;13.460;2022-07-04T05:20:03;19.40;99.90
12773;DHT22;6450;48.576;13.460;2022-07-04T05:22:30;19.40;99.90
12773;DHT22;6450;48.576;13.460;2022-07-04T05:24:57;19.40;99.90
12773;DHT22;6450;48.576;13.460;2022-07-04T05:27:25;19.50;99.90
12773;DHT22;6450;48.576;13.460;2022-07-04T05:29:52;19.60;99.90
12773;DHT22;6450;48.576;13.460;2022-07-04T05:32:19;19.70;99.90
12773;DHT22;6450;48.576;13.460;2022-07-04T05:34:48;19.70;99.90
12773;DHT22;6450;48.576;13.460;2022-07-04T05:37:14;20.00;99.90
12773;DHT22;6450;48.576;13.460;2022-07-04T05:39:41;20.00;99.90
12773;DHT22;6450;48.576;13.460;2022-07-04T05:42:08;20.00;99.90
12773;DHT22;6450;48.576;13.460;2022-07-04T05:44:35;20.00;99.90
12773;DHT22;6450;48.576;13.460;2022-07-04T05:47:03;20.10;99.90
12773;DHT22;6450;48.576;13.460;2022-07-04T05:49:30;20.10;99.90
12773;DHT22;6450;48.576;13.460;2022-07-04T05:51:58;20.20;99.90
12773;DHT22;6450;48.576;13.460;2022-07-04T05:54:25;20.10;99.90
12773;DHT22;6450;48.576;13.460;2022-07-04T05:56:52;20.10;99.90
12773;DHT22;6450;48.576;13.460;2022-07-04T05:59:19;20.10;99.90
12773;DHT22;6450;48.576;13.460;2022-07-04T06:01:46;20.20;99.90
12773;DHT22;6450;48.576;13.460;2022-07-04T06:04:13;20.30;99.90
12773;DHT22;6450;48.576;13.460;2022-07-04T06:06:40;20.30;99.90
12773;DHT22;6450;48.576;13.460;2022-07-04T06:09:08;20.40;99.90
12773;DHT22;6450;48.576;13.460;2022-07-04T06:11:35;20.40;99.90
12773;DHT22;6450;48.576;13.460;2022-07-04T06:14:02;20.50;99.90
12773;DHT22;6450;48.576;13.460;2022-07-04T06:16:30;20.60;99.90
12773;DHT22;6450;48.576;13.460;2022-07-04T06:18:57;20.70;99.90
12773;DHT22;6450;48.576;13.460;2022-07-04T06:21:24;20.80;99.90
12773;DHT22;6450;48.576;13.460;2022-07-04T06:23:51;20.90;99.90
12773;DHT22;6450;48.576;13.460;2022-07-04T06:26:19;20.90;99.90
12773;DHT22;6450;48.576;13.460;2022-07-04T06:28:46;21.00;99.90
12773;DHT22;6450;48.576;13.460;2022-07-04T06:31:13;21.10;99.90
12773;DHT22;6450;48.576;13.460;2022-07-04T06:33:40;21.20;99.90
12773;DHT22;6450;48.576;13.460;2022-07-04T06:36:21;21.20;99.90
12773;DHT22;6450;48.576;13.460;2022-07-04T06:38:48;21.30;99.90
12773;DHT22;6450;48.576;13.460;2022-07-04T06:41:16;21.40;99.90
12773;DHT22;6450;48.576;13.460;2022-07-04T06:43:44;21.50;99.90
12773;DHT22;6450;48.576;13.460;2022-07-04T06:46:11;21.60;99.90
12773;DHT22;6450;48.576;13.460;2022-07-04T06:48:38;21.50;99.90
12773;DHT22;6450;48.576;13.460;2022-07-04T06:51:05;21.50;99.90
12773;DHT22;6450;48.576;13.460;2022-07-04T06:53:32;21.50;99.90
12773;DHT22;6450;48.576;13.460;2022-07-04T06:55:59;21.60;99.90
12773;DHT22;6450;48.576;13.460;2022-07-04T06:58:26;21.70;99.90
12773;DHT22;6450;48.576;13.460;2022-07-04T07:00:54;21.70;99.90
12773;DHT22;6450;48.576;13.460;2022-07-04T07:03:21;21.70;99.90
12773;DHT22;6450;48.576;13.460;2022-07-04T07:05:48;21.90;99.90
12773;DHT22;6450;48.576;13.460;2022-07-04T07:08:15;22.00;99.90
12773;DHT22;6450;48.576;13.460;2022-07-04T07:10:42;21.90;99.90
12773;DHT22;6450;48.576;13.460;2022-07-04T07:13:09;21.90;99.90
12773;DHT22;6450;48.576;13.460;2022-07-04T07:15:36;22.00;99.90
12773;DHT22;6450;48.576;13.460;2022-07-04T07:18:05;22.10;99.90
12773;DHT22;6450;48.576;13.460;2022-07-04T07:20:32;22.20;99.90
12773;DHT22;6450;48.576;13.460;2022-07-04T07:23:01;22.40;99.90
12773;DHT22;6450;48.576;13.460;2022-07-04T07:25:29;22.50;99.90
12773;DHT22;6450;48.576;13.460;2022-07-04T07:27:56;22.50;99.90
12773;DHT22;6450;48.576;13.460;2022-07-04T07:30:23;22.50;99.90
12773;DHT22;6450;48.576;13.460;2022-07-04T07:32:50;22.60;99.90
12773;DHT22;6450;48.576;13.460;2022-07-04T07:35:19;22.50;99.90
12773;DHT22;6450;48.576;13.460;2022-07-04T07:37:47;22.50;99.90
12773;DHT22;6450;48.576;13.460;2022-07-04T07:40:14;22.60;99.90
12773;DHT22;6450;48.576;13.460;2022-07-04T07:42:41;22.70;99.90
12773;DHT22;6450;48.576;13.460;2022-07-04T07:45:08;22.90;99.90
12773;DHT22;6450;48.576;13.460;2022-07-04T07:47:35;23.00;99.90
12773;DHT22;6450;48.576;13.460;2022-07-04T07:50:03;22.90;99.90
12773;DHT22;6450;48.576;13.460;2022-07-04T07:52:32;22.90;99.90
12773;DHT22;6450;48.576;13.460;2022-07-04T07:54:59;23.00;99.90
12773;DHT22;6450;48.576;13.460;2022-07-04T07:57:26;23.00;99.90
12773;DHT22;6450;48.576;13.460;2022-07-04T07:59:53;23.10;99.90
12773;DHT22;6450;48.576;13.460;2022-07-04T08:02:20;23.20;99.90
12773;DHT22;6450;48.576;13.460;2022-07-04T08:05:08;23.30;99.90
12773;DHT22;6450;48.576;13.460;2022-07-04T08:07:35;23.40;99.90
12773;DHT22;6450;48.576;13.460;2022-07-04T08:10:03;23.50;99.90
12773;DHT22;6450;48.576;13.460;2022-07-04T08:12:30;23.60;98.80
12773;DHT22;6450;48.576;13.460;2022-07-04T08:14:57;23.70;98.10
12773;DHT22;6450;48.576;13.460;2022-07-04T08:17:24;23.80;97.70
12773;DHT22;6450;48.576;13.460;2022-07-04T08:19:51;23.90;97.10
12773;DHT22;6450;48.576;13.460;2022-07-04T08:22:18;23.80;96.90
12773;DHT22;6450;48.576;13.460;2022-07-04T08:24:47;23.60;96.90
12773;DHT22;6450;48.576;13.460;2022-07-04T08:27:14;23.50;96.90
12773;DHT22;6450;48.576;13.460;2022-07-04T08:29:41;23.50;96.90
12773;DHT22;6450;48.576;13.460;2022-07-04T08:32:08;23.40;97.00
12773;DHT22;6450;48.576;13.460;2022-07-04T08:34:35;23.40;96.60
12773;DHT22;6450;48.576;13.460;2022-07-04T08:37:03;23.60;96.10
12773;DHT22;6450;48.576;13.460;2022-07-04T08:39:30;23.60;96.40
12773;DHT22;6450;48.576;13.460;2022-07-04T08:42:02;23.80;96.10
12773;DHT22;6450;48.576;13.460;2022-07-04T08:44:30;23.80;96.40
12773;DHT22;6450;48.576;13.460;2022-07-04T08:46:57;23.80;95.60
12773;DHT22;6450;48.576;13.460;2022-07-04T08:49:31;23.80;95.80
12773;DHT22;6450;48.576;13.460;2022-07-04T08:52:03;23.90;95.10
12773;DHT22;6450;48.576;13.460;2022-07-04T08:54:32;23.90;95.30
12773;DHT22;6450;48.576;13.460;2022-07-04T08:57:18;24.00;94.80
12773;DHT22;6450;48.576;13.460;2022-07-04T09:00:04;24.20;94.10
12773;DHT22;6450;48.576;13.460;2022-07-04T09:02:34;24.10;94.60
12773;DHT22;6450;48.576;13.460;2022-07-04T09:05:03;24.10;94.40
12773;DHT22;6450;48.576;13.460;2022-07-04T09:07:31;24.20;93.60
12773;DHT22;6450;48.576;13.460;2022-07-04T09:09:58;24.30;93.60
12773;DHT22;6450;48.576;13.460;2022-07-04T09:12:26;24.30;92.90
12773;DHT22;6450;48.576;13.460;2022-07-04T09:14:53;24.20;93.00
12773;DHT22;6450;48.576;13.460;2022-07-04T09:17:22;24.30;92.90
12773;DHT22;6450;48.576;13.460;2022-07-04T09:20:11;24.50;92.70
12773;DHT22;6450;48.576;13.460;2022-07-04T09:22:38;24.60;91.70
12773;DHT22;6450;48.576;13.460;2022-07-04T09:25:06;24.60;91.70
12773;DHT22;6450;48.576;13.460;2022-07-04T09:27:36;24.70;91.30
12773;DHT22;6450;48.576;13.460;2022-07-04T09:30:04;24.70;91.40
12773;DHT22;6450;48.576;13.460;2022-07-04T09:32:36;24.80;91.30
12773;DHT22;6450;48.576;13.460;2022-07-04T09:35:04;25.00;90.40
12773;DHT22;6450;48.576;13.460;2022-07-04T09:37:37;25.10;88.20
12773;DHT22;6450;48.576;13.460;2022-07-04T09:40:07;25.10;87.40
12773;DHT22;6450;48.576;13.460;2022-07-04T09:42:36;25.20;87.50
12773;DHT22;6450;48.576;13.460;2022-07-04T09:45:05;24.90;87.80
12773;DHT22;6450;48.576;13.460;2022-07-04T09:47:32;25.00;88.00
12773;DHT22;6450;48.576;13.460;2022-07-04T09:49:59;25.30;87.50
12773;DHT22;6450;48.576;13.460;2022-07-04T09:52:26;25.60;86.60
12773;DHT22;6450;48.576;13.460;2022-07-04T09:54:57;25.90;84.40
12773;DHT22;6450;48.576;13.460;2022-07-04T09:57:24;26.00;83.40
12773;DHT22;6450;48.576;13.460;2022-07-04T09:59:53;26.00;82.90
12773;DHT22;6450;48.576;13.460;2022-07-04T10:02:20;26.00;81.80
12773;DHT22;6450;48.576;13.460;2022-07-04T10:04:49;25.90;81.60
12773;DHT22;6450;48.576;13.460;2022-07-04T10:07:31;25.90;81.30
12773;DHT22;6450;48.576;13.460;2022-07-04T10:09:58;25.90;80.50
12773;DHT22;6450;48.576;13.460;2022-07-04T10:12:26;26.10;80.40
12773;DHT22;6450;48.576;13.460;2022-07-04T10:14:55;26.10;79.80
12773;DHT22;6450;48.576;13.460;2022-07-04T10:17:22;26.40;79.50
12773;DHT22;6450;48.576;13.460;2022-07-04T10:19:49;26.60;79.20
12773;DHT22;6450;48.576;13.460;2022-07-04T10:22:19;26.60;77.90
12773;DHT22;6450;48.576;13.460;2022-07-04T10:24:48;26.30;78.50
12773;DHT22;6450;48.576;13.460;2022-07-04T10:27:15;26.50;78.60
12773;DHT22;6450;48.576;13.460;2022-07-04T10:29:42;26.50;77.60
12773;DHT22;6450;48.576;13.460;2022-07-04T10:32:12;26.60;76.90
12773;DHT22;6450;48.576;13.460;2022-07-04T10:34:40;26.60;76.10
12773;DHT22;6450;48.576;13.460;2022-07-04T10:37:07;26.80;74.20
12773;DHT22;6450;48.576;13.460;2022-07-04T10:39:34;26.80;73.70
12773;DHT22;6450;48.576;13.460;2022-07-04T10:42:02;26.90;74.50
12773;DHT22;6450;48.576;13.460;2022-07-04T10:44:31;27.00;73.40
12773;DHT22;6450;48.576;13.460;2022-07-04T10:47:03;27.20;73.10
12773;DHT22;6450;48.576;13.460;2022-07-04T10:49:32;26.80;72.40
12773;DHT22;6450;48.576;13.460;2022-07-04T10:52:12;26.30;73.60
12773;DHT22;6450;48.576;13.460;2022-07-04T10:54:41;26.30;74.80
12773;DHT22;6450;48.576;13.460;2022-07-04T10:57:15;26.10;74.80
12773;DHT22;6450;48.576;13.460;2022-07-04T10:59:44;26.20;74.70
12773;DHT22;6450;48.576;13.460;2022-07-04T11:02:29;26.20;74.70
12773;DHT22;6450;48.576;13.460;2022-07-04T11:05:00;26.30;74.50
12773;DHT22;6450;48.576;13.460;2022-07-04T11:07:56;26.20;74.70
12773;DHT22;6450;48.576;13.460;2022-07-04T11:10:24;26.20;74.90
12773;DHT22;6450;48.576;13.460;2022-07-04T11:16:03;26.30;74.60
12773;DHT22;6450;48.576;13.460;2022-07-04T11:18:39;26.30;75.50
12773;DHT22;6450;48.576;13.460;2022-07-04T11:21:22;26.40;74.40
12773;DHT22;6450;48.576;13.460;2022-07-04T11:23:51;26.40;74.20
12773;DHT22;6450;48.576;13.460;2022-07-04T11:26:20;26.70;73.60
12773;DHT22;6450;48.576;13.460;2022-07-04T11:28:48;26.90;73.30
12773;DHT22;6450;48.576;13.460;2022-07-04T11:31:15;27.00;72.40
12773;DHT22;6450;48.576;13.460;2022-07-04T11:33:43;27.00;72.20
12773;DHT22;6450;48.576;13.460;2022-07-04T11:36:11;27.00;71.80
12773;DHT22;6450;48.576;13.460;2022-07-04T11:38:46;26.50;72.50
12773;DHT22;6450;48.576;13.460;2022-07-04T11:41:14;26.60;73.70
12773;DHT22;6450;48.576;13.460;2022-07-04T11:44:03;26.80;73.20
12773;DHT22;6450;48.576;13.460;2022-07-04T11:46:48;27.00;72.30
12773;DHT22;6450;48.576;13.460;2022-07-04T11:49:15;27.00;71.80
12773;DHT22;6450;48.576;13.460;2022-07-04T11:51:43;27.10;71.60
12773;DHT22;6450;48.576;13.460;2022-07-04T11:54:11;27.10;71.30
12773;DHT22;6450;48.576;13.460;2022-07-04T11:56:39;27.20;70.70
12773;DHT22;6450;48.576;13.460;2022-07-04T11:59:11;27.20;71.30
12773;DHT22;6450;48.576;13.460;2022-07-04T12:01:42;27.20;70.40
12773;DHT22;6450;48.576;13.460;2022-07-04T12:04:14;27.20;71.20
12773;DHT22;6450;48.576;13.460;2022-07-04T12:06:42;27.20;70.50
12773;DHT22;6450;48.576;13.460;2022-07-04T12:09:10;27.10;70.60
12773;DHT22;6450;48.576;13.460;2022-07-04T12:11:54;26.80;71.20
12773;DHT22;6450;48.576;13.460;2022-07-04T12:14:22;27.10;71.50
12773;DHT22;6450;48.576;13.460;2022-07-04T12:16:49;27.30;71.00
12773;DHT22;6450;48.576;13.460;2022-07-04T12:19:16;27.50;70.60
12773;DHT22;6450;48.576;13.460;2022-07-04T12:21:44;27.70;69.70
12773;DHT22;6450;48.576;13.460;2022-07-04T12:24:12;28.10;68.40
12773;DHT22;6450;48.576;13.460;2022-07-04T12:26:46;28.50;67.60
12773;DHT22;6450;48.576;13.460;2022-07-04T12:29:21;28.50;66.40
12773;DHT22;6450;48.576;13.460;2022-07-04T12:31:51;28.90;65.90
12773;DHT22;6450;48.576;13.460;2022-07-04T12:34:19;28.60;65.90
12773;DHT22;6450;48.576;13.460;2022-07-04T12:36:50;28.10;67.00
12773;DHT22;6450;48.576;13.460;2022-07-04T12:39:29;27.90;67.80
12773;DHT22;6450;48.576;13.460;2022-07-04T12:42:04;28.20;67.70
12773;DHT22;6450;48.576;13.460;2022-07-04T12:44:32;28.10;67.40
12773;DHT22;6450;48.576;13.460;2022-07-04T12:46:59;28.20;67.00
12773;DHT22;6450;48.576;13.460;2022-07-04T12:49:26;28.30;66.60
12773;DHT22;6450;48.576;13.460;2022-07-04T12:52:06;28.30;67.10
12773;DHT22;6450;48.576;13.460;2022-07-04T12:54:36;28.00;68.20
12773;DHT22;6450;48.576;13.460;2022-07-04T12:57:09;27.60;68.70
12773;DHT22;6450;48.576;13.460;2022-07-04T12:59:38;27.30;70.00
12773;DHT22;6450;48.576;13.460;2022-07-04T13:02:06;27.40;70.00
12773;DHT22;6450;48.576;13.460;2022-07-04T13:04:34;27.60;69.80
12773;DHT22;6450;48.576;13.460;2022-07-04T13:07:12;27.60;68.10
12773;DHT22;6450;48.576;13.460;2022-07-04T13:09:42;27.50;68.20
12773;DHT22;6450;48.576;13.460;2022-07-04T13:12:09;27.30;69.00
12773;DHT22;6450;48.576;13.460;2022-07-04T13:14:54;27.40;68.70
12773;DHT22;6450;48.576;13.460;2022-07-04T13:17:23;27.50;69.20
12773;DHT22;6450;48.576;13.460;2022-07-04T13:19:50;27.60;68.30
12773;DHT22;6450;48.576;13.460;2022-07-04T13:22:19;27.20;68.20
12773;DHT22;6450;48.576;13.460;2022-07-04T13:24:48;27.20;69.10
12773;DHT22;6450;48.576;13.460;2022-07-04T13:27:16;27.20;68.40
12773;DHT22;6450;48.576;13.460;2022-07-04T13:29:43;27.30;68.10
12773;DHT22;6450;48.576;13.460;2022-07-04T13:32:10;27.20;67.80
12773;DHT22;6450;48.576;13.460;2022-07-04T13:34:37;27.20;68.90
12773;DHT22;6450;48.576;13.460;2022-07-04T13:37:04;27.20;68.20
12773;DHT22;6450;48.576;13.460;2022-07-04T13:39:31;27.10;69.20
12773;DHT22;6450;48.576;13.460;2022-07-04T13:42:00;27.10;69.40
12773;DHT22;6450;48.576;13.460;2022-07-04T13:44:27;27.10;69.60
12773;DHT22;6450;48.576;13.460;2022-07-04T13:46:54;27.30;69.20
12773;DHT22;6450;48.576;13.460;2022-07-04T13:49:22;27.30;68.20
12773;DHT22;6450;48.576;13.460;2022-07-04T13:51:49;27.30;68.00
12773;DHT22;6450;48.576;13.460;2022-07-04T13:54:16;27.20;67.40
12773;DHT22;6450;48.576;13.460;2022-07-04T13:56:44;27.20;67.90
12773;DHT22;6450;48.576;13.460;2022-07-04T13:59:12;27.30;68.00
12773;DHT22;6450;48.576;13.460;2022-07-04T14:01:40;27.50;66.60
12773;DHT22;6450;48.576;13.460;2022-07-04T14:04:08;27.40;66.10
12773;DHT22;6450;48.576;13.460;2022-07-04T14:06:35;27.30;65.80
12773;DHT22;6450;48.576;13.460;2022-07-04T14:09:02;27.10;66.00
12773;DHT22;6450;48.576;13.460;2022-07-04T14:11:29;27.20;65.40
12773;DHT22;6450;48.576;13.460;2022-07-04T14:13:56;27.20;65.10
12773;DHT22;6450;48.576;13.460;2022-07-04T14:16:25;27.20;65.40
12773;DHT22;6450;48.576;13.460;2022-07-04T14:18:52;27.50;64.90
12773;DHT22;6450;48.576;13.460;2022-07-04T14:21:19;27.10;65.40
12773;DHT22;6450;48.576;13.460;2022-07-04T14:23:46;27.10;65.90
12773;DHT22;6450;48.576;13.460;2022-07-04T14:26:16;27.20;66.20
12773;DHT22;6450;48.576;13.460;2022-07-04T14:28:45;27.30;65.60
12773;DHT22;6450;48.576;13.460;2022-07-04T14:31:12;27.40;64.20
12773;DHT22;6450;48.576;13.460;2022-07-04T14:33:40;27.40;64.20
12773;DHT22;6450;48.576;13.460;2022-07-04T14:36:08;27.40;63.80
12773;DHT22;6450;48.576;13.460;2022-07-04T14:38:37;27.40;63.30
12773;DHT22;6450;48.576;13.460;2022-07-04T14:41:06;27.50;63.50
12773;DHT22;6450;48.576;13.460;2022-07-04T14:43:39;27.70;62.60
12773;DHT22;6450;48.576;13.460;2022-07-04T14:46:07;27.80;61.80
12773;DHT22;6450;48.576;13.460;2022-07-04T14:48:34;27.90;62.60
12773;DHT22;6450;48.576;13.460;2022-07-04T14:51:03;28.00;61.00
12773;DHT22;6450;48.576;13.460;2022-07-04T14:53:31;28.10;60.60
12773;DHT22;6450;48.576;13.460;2022-07-04T14:55:58;28.10;60.40
12773;DHT22;6450;48.576;13.460;2022-07-04T14:58:25;28.10;60.30
12773;DHT22;6450;48.576;13.460;2022-07-04T15:00:52;28.20;60.90
12773;DHT22;6450;48.576;13.460;2022-07-04T15:03:19;28.30;60.30
12773;DHT22;6450;48.576;13.460;2022-07-04T15:05:47;28.60;59.60
12773;DHT22;6450;48.576;13.460;2022-07-04T15:08:15;28.80;58.90
12773;DHT22;6450;48.576;13.460;2022-07-04T15:10:42;28.80;58.60
12773;DHT22;6450;48.576;13.460;2022-07-04T15:13:09;29.10;58.10
12773;DHT22;6450;48.576;13.460;2022-07-04T15:15:36;29.40;57.00
12773;DHT22;6450;48.576;13.460;2022-07-04T15:20:31;30.20;54.90
12773;DHT22;6450;48.576;13.460;2022-07-04T15:23:17;30.70;52.90
12773;DHT22;6450;48.576;13.460;2022-07-04T15:26:02;30.70;51.90
12773;DHT22;6450;48.576;13.460;2022-07-04T15:28:29;30.50;51.90
12773;DHT22;6450;48.576;13.460;2022-07-04T15:30:56;30.70;51.80
12773;DHT22;6450;48.576;13.460;2022-07-04T15:33:23;31.20;51.10
12773;DHT22;6450;48.576;13.460;2022-07-04T15:35:53;32.10;50.70
12773;DHT22;6450;48.576;13.460;2022-07-04T15:38:22;32.10;49.70
12773;DHT22;6450;48.576;13.460;2022-07-04T15:40:50;32.10;50.50
12773;DHT22;6450;48.576;13.460;2022-07-04T15:43:17;31.90;50.90
12773;DHT22;6450;48.576;13.460;2022-07-04T15:45:44;32.30;50.10